createdAt,value
2018-10-05T00:00:34.323Z,100152.00
2018-10-05T00:02:43.212Z,100154.00
2018-10-05T00:04:49.458Z,100152.00
2018-10-05T00:06:53.912Z,100158.00
2018-10-05T00:08:58.363Z,100158.00
2018-10-05T00:11:03.132Z,100149.00
2018-10-05T00:13:07.835Z,100153.00
2018-10-05T00:15:12.264Z,100148.00
2018-10-05T00:17:16.731Z,100157.00
2018-10-05T00:19:21.232Z,100150.00
2018-10-05T00:21:27.948Z,100153.00
2018-10-05T00:23:32.532Z,100146.00
2018-10-05T00:25:37.087Z,100146.00
2018-10-05T00:27:41.621Z,100142.00
2018-10-05T00:29:46.046Z,100139.00
2018-10-05T00:31:50.559Z,100132.00
2018-10-05T00:33:55.076Z,100135.00
2018-10-05T00:35:59.528Z,100135.00
2018-10-05T00:38:04.043Z,100139.00
2018-10-05T00:40:08.588Z,100141.00
2018-10-05T00:42:13.051Z,100137.00
2018-10-05T00:44:17.541Z,100130.00
2018-10-05T00:46:22.046Z,100128.00
2018-10-05T00:48:26.524Z,100130.00
2018-10-05T00:50:31.054Z,100114.00
2018-10-05T00:52:35.507Z,100124.00
2018-10-05T00:54:40.044Z,100120.00
2018-10-05T00:56:44.506Z,100120.00
2018-10-05T00:58:50.082Z,100118.00
2018-10-05T01:00:54.562Z,100110.00
2018-10-05T01:02:59.042Z,100114.00
2018-10-05T01:05:03.522Z,100112.00
2018-10-05T01:07:08.059Z,100111.00
2018-10-05T01:09:12.485Z,100105.00
2018-10-05T01:11:16.962Z,100103.00
2018-10-05T01:13:21.591Z,100102.00
2018-10-05T01:15:26.106Z,100097.00
2018-10-05T01:17:30.612Z,100102.00
2018-10-05T01:19:36.988Z,100100.00
2018-10-05T01:21:41.467Z,100105.00
2018-10-05T01:23:45.935Z,100094.00
2018-10-05T01:25:50.395Z,100104.00
2018-10-05T01:27:54.850Z,100105.00
2018-10-05T01:29:59.426Z,100098.00
2018-10-05T01:32:03.924Z,100092.00
2018-10-05T01:34:08.806Z,100088.00
2018-10-05T01:36:13.438Z,100087.00
2018-10-05T01:38:17.971Z,100080.00
2018-10-05T01:40:22.527Z,100083.00
2018-10-05T01:42:26.987Z,100080.00
2018-10-05T01:44:31.675Z,100075.00
2018-10-05T01:46:36.133Z,100063.00
2018-10-05T01:48:40.669Z,100075.00
2018-10-05T01:50:45.214Z,100067.00
2018-10-05T01:52:50.703Z,100059.00
2018-10-05T01:54:55.161Z,100063.00
2018-10-05T01:56:59.585Z,100056.00
2018-10-05T01:59:04.423Z,100053.00
2018-10-05T02:01:11.884Z,100052.00
2018-10-05T02:03:16.406Z,100062.00
2018-10-05T02:05:20.867Z,100046.00
2018-10-05T02:07:25.335Z,100042.00
2018-10-05T02:09:29.775Z,100046.00
2018-10-05T02:11:34.733Z,100044.00
2018-10-05T02:13:39.255Z,100043.00
2018-10-05T02:15:43.716Z,100041.00
2018-10-05T02:17:48.361Z,100038.00
2018-10-05T02:19:52.846Z,100039.00
2018-10-05T02:21:57.351Z,100040.00
2018-10-05T02:24:01.880Z,100044.00
2018-10-05T02:26:06.676Z,100033.00
2018-10-05T02:28:11.170Z,100039.00
2018-10-05T02:30:15.682Z,100029.00
2018-10-05T02:32:20.199Z,100020.00
2018-10-05T02:34:24.783Z,100023.00
2018-10-05T02:36:29.203Z,100030.00
2018-10-05T02:38:34.827Z,100023.00
2018-10-05T02:40:39.310Z,100028.00
2018-10-05T02:42:43.875Z,100025.00
2018-10-05T02:44:48.320Z,100024.00
2018-10-05T02:46:52.849Z,100020.00
2018-10-05T02:48:57.339Z,100020.00
2018-10-05T02:51:01.798Z,100020.00
2018-10-05T02:53:06.776Z,100021.00
2018-10-05T02:55:11.547Z,100008.00
2018-10-05T02:57:16.038Z,100002.00
2018-10-05T02:59:20.557Z,100016.00
2018-10-05T03:01:42.709Z,100003.00
2018-10-05T03:03:47.214Z,100010.00
2018-10-05T03:05:51.735Z,99998.00
2018-10-05T03:07:57.183Z,99990.00
2018-10-05T03:10:02.548Z,100001.00
2018-10-05T03:12:07.072Z,99991.00
2018-10-05T03:14:11.571Z,100001.00
2018-10-05T03:16:17.146Z,99990.00
2018-10-05T03:18:21.611Z,99987.00
2018-10-05T03:20:26.151Z,99988.00
2018-10-05T03:22:30.710Z,99993.00
2018-10-05T03:24:35.595Z,99979.00
2018-10-05T03:26:40.636Z,99990.00
2018-10-05T03:28:45.926Z,99992.00
2018-10-05T03:30:50.447Z,99989.00
2018-10-05T03:32:54.902Z,99985.00
2018-10-05T03:34:59.378Z,99985.00
2018-10-05T03:37:03.858Z,99981.00
2018-10-05T03:39:08.380Z,99985.00
2018-10-05T03:41:12.887Z,99976.00
2018-10-05T03:43:17.382Z,99979.00
2018-10-05T03:45:22.147Z,99980.00
2018-10-05T03:47:26.623Z,99974.00
2018-10-05T03:49:31.154Z,99978.00
2018-10-05T03:51:35.632Z,99980.00
2018-10-05T03:53:40.084Z,99983.00
2018-10-05T03:55:44.610Z,99974.00
2018-10-05T03:57:49.084Z,99966.00
2018-10-05T03:59:53.569Z,99970.00
2018-10-05T04:01:58.006Z,99967.00
2018-10-05T04:04:02.518Z,99968.00
2018-10-05T04:06:07.264Z,99974.00
2018-10-05T04:08:11.744Z,99969.00
2018-10-05T04:10:17.398Z,99965.00
2018-10-05T04:12:21.904Z,99960.00
2018-10-05T04:14:26.419Z,99966.00
2018-10-05T04:16:30.956Z,99964.00
2018-10-05T04:18:35.467Z,99952.00
2018-10-05T04:20:39.894Z,99952.00
2018-10-05T04:22:44.342Z,99955.00
2018-10-05T04:24:49.283Z,99950.00
2018-10-05T04:26:53.791Z,99942.00
2018-10-05T04:28:59.075Z,99944.00
2018-10-05T04:31:03.527Z,99936.00
2018-10-05T04:33:07.967Z,99936.00
2018-10-05T04:35:12.520Z,99947.00
2018-10-05T04:37:17.829Z,99939.00
2018-10-05T04:39:22.331Z,99946.00
2018-10-05T04:41:26.822Z,99946.00
2018-10-05T04:43:31.279Z,99946.00
2018-10-05T04:45:35.816Z,99945.00
2018-10-05T04:47:40.271Z,99940.00
2018-10-05T04:49:44.982Z,99940.00
2018-10-05T04:51:49.309Z,99929.00
2018-10-05T04:53:53.852Z,99943.00
2018-10-05T04:55:58.388Z,99934.00
2018-10-05T04:58:02.820Z,99933.00
2018-10-05T05:00:07.883Z,99926.00
2018-10-05T05:02:12.779Z,99934.00
2018-10-05T05:04:17.963Z,99927.00
2018-10-05T05:06:22.515Z,99933.00
2018-10-05T05:08:27.274Z,99934.00
2018-10-05T05:10:31.772Z,99942.00
2018-10-05T05:12:36.234Z,99933.00
2018-10-05T05:14:40.778Z,99925.00
2018-10-05T05:16:45.304Z,99933.00
2018-10-05T05:18:49.832Z,99926.00
2018-10-05T05:20:54.263Z,99927.00
2018-10-05T05:22:58.818Z,99925.00
2018-10-05T05:25:03.292Z,99929.00
2018-10-05T05:27:07.823Z,99931.00
2018-10-05T05:29:12.307Z,99927.00
2018-10-05T05:31:18.027Z,99920.00
2018-10-05T05:33:22.515Z,99929.00
2018-10-05T05:35:27.132Z,99918.00
2018-10-05T05:37:31.635Z,99918.00
2018-10-05T05:39:36.146Z,99920.00
2018-10-05T05:41:40.667Z,99921.00
2018-10-05T05:43:45.055Z,99917.00
2018-10-05T05:45:49.595Z,99917.00
2018-10-05T05:47:54.061Z,99921.00
2018-10-05T05:49:58.579Z,99914.00
2018-10-05T05:52:03.024Z,99914.00
2018-10-05T05:54:07.680Z,99912.00
2018-10-05T05:56:12.070Z,99905.00
2018-10-05T05:58:16.714Z,99907.00
2018-10-05T06:00:21.207Z,99896.00
2018-10-05T06:02:25.771Z,99910.00
2018-10-05T06:04:30.306Z,99903.00
2018-10-05T06:06:34.843Z,99902.00
2018-10-05T06:08:40.487Z,99897.00
2018-10-05T06:10:45.028Z,99897.00
2018-10-05T06:12:49.539Z,99899.00
2018-10-05T06:14:53.969Z,99901.00
2018-10-05T06:16:58.751Z,99901.00
2018-10-05T06:19:03.261Z,99902.00
2018-10-05T06:21:09.105Z,99906.00
2018-10-05T06:23:13.591Z,99899.00
2018-10-05T06:25:18.030Z,99900.00
2018-10-05T06:27:22.595Z,99900.00
2018-10-05T06:29:27.145Z,99901.00
2018-10-05T06:31:31.676Z,99909.00
2018-10-05T06:33:36.332Z,99903.00
2018-10-05T06:35:40.844Z,99909.00
2018-10-05T06:37:45.303Z,99899.00
2018-10-05T06:39:49.807Z,99894.00
2018-10-05T06:41:55.334Z,99909.00
2018-10-05T06:44:00.776Z,99901.00
2018-10-05T06:46:05.345Z,99903.00
2018-10-05T06:48:09.851Z,99899.00
2018-10-05T06:50:14.310Z,99899.00
2018-10-05T06:52:18.815Z,99904.00
2018-10-05T06:54:23.320Z,99895.00
2018-10-05T06:56:27.835Z,99907.00
2018-10-05T06:58:32.435Z,99904.00
2018-10-05T07:00:36.937Z,99908.00
2018-10-05T07:02:41.541Z,99904.00
2018-10-05T07:04:45.963Z,99901.00
2018-10-05T07:06:50.505Z,99889.00
2018-10-05T07:08:54.976Z,99890.00
2018-10-05T07:10:59.477Z,99893.00
2018-10-05T07:13:04.110Z,99892.00
2018-10-05T07:15:08.659Z,99895.00
2018-10-05T07:17:13.199Z,99889.00
2018-10-05T07:19:17.896Z,99886.00
2018-10-05T07:21:22.422Z,99892.00
2018-10-05T07:23:27.075Z,99891.00
2018-10-05T07:25:31.596Z,99894.00
2018-10-05T07:27:36.050Z,99892.00
2018-10-05T07:29:40.635Z,99887.00
2018-10-05T07:31:45.459Z,99880.00
2018-10-05T07:33:49.946Z,99877.00
2018-10-05T07:35:54.467Z,99878.00
2018-10-05T07:37:58.950Z,99882.00
2018-10-05T07:40:03.495Z,99881.00
2018-10-05T07:42:07.982Z,99881.00
2018-10-05T07:44:12.426Z,99881.00
2018-10-05T07:46:16.928Z,99885.00
2018-10-05T07:48:21.370Z,99874.00
2018-10-05T07:50:25.838Z,99873.00
2018-10-05T07:52:30.347Z,99884.00
2018-10-05T07:54:34.847Z,99884.00
2018-10-05T07:56:39.335Z,99884.00
2018-10-05T07:58:43.826Z,99871.00
2018-10-05T08:00:48.272Z,99870.00
2018-10-05T08:02:52.782Z,99876.00
2018-10-05T08:04:58.227Z,99877.00
2018-10-05T08:07:02.699Z,99875.00
2018-10-05T08:09:09.062Z,99866.00
2018-10-05T08:11:13.596Z,99872.00
2018-10-05T08:13:18.086Z,99862.00
2018-10-05T08:15:22.631Z,99864.00
2018-10-05T08:17:27.199Z,99861.00
2018-10-05T08:19:32.858Z,99862.00
2018-10-05T08:21:37.377Z,99861.00
2018-10-05T08:23:45.238Z,99859.00
2018-10-05T08:25:49.703Z,99859.00
2018-10-05T08:27:54.268Z,99850.00
2018-10-05T08:29:58.840Z,99844.00
2018-10-05T08:32:03.408Z,99843.00
2018-10-05T08:34:08.057Z,99841.00
2018-10-05T08:36:12.474Z,99838.00
2018-10-05T08:38:17.041Z,99841.00
2018-10-05T08:40:21.751Z,99837.00
2018-10-05T08:42:27.339Z,99830.00
2018-10-05T08:44:31.834Z,99829.00
2018-10-05T08:46:36.342Z,99836.00
2018-10-05T08:48:40.852Z,99826.00
2018-10-05T08:50:45.453Z,99828.00
2018-10-05T08:52:50.064Z,99831.00
2018-10-05T08:54:54.488Z,99826.00
2018-10-05T08:56:58.999Z,99824.00
2018-10-05T08:59:03.609Z,99824.00
2018-10-05T09:01:09.735Z,99818.00
2018-10-05T09:03:14.254Z,99813.00
2018-10-05T09:05:18.886Z,99819.00
2018-10-05T09:07:23.588Z,99803.00
2018-10-05T09:09:29.385Z,99800.00
2018-10-05T09:11:34.225Z,99801.00
2018-10-05T09:13:39.046Z,99785.00
2018-10-05T09:15:43.538Z,99793.00
2018-10-05T09:17:48.132Z,99795.00
2018-10-05T09:19:52.647Z,99795.00
2018-10-05T09:21:57.521Z,99794.00
2018-10-05T09:24:02.346Z,99791.00
2018-10-05T09:26:06.998Z,99783.00
2018-10-05T09:28:12.403Z,99776.00
2018-10-05T09:30:17.135Z,99776.00
2018-10-05T09:32:21.817Z,99771.00
2018-10-05T09:34:26.376Z,99774.00
2018-10-05T09:36:30.895Z,99762.00
2018-10-05T09:38:35.567Z,99765.00
2018-10-05T09:40:40.033Z,99770.00
2018-10-05T09:42:46.071Z,99762.00
2018-10-05T09:44:51.359Z,99748.00
2018-10-05T09:46:55.868Z,99758.00
2018-10-05T09:49:00.839Z,99754.00
2018-10-05T09:51:05.230Z,99746.00
2018-10-05T09:53:09.978Z,99744.00
2018-10-05T09:55:14.506Z,99729.00
2018-10-05T09:57:19.014Z,99732.00
2018-10-05T09:59:23.550Z,99734.00
2018-10-05T10:01:33.106Z,99733.00
2018-10-05T10:03:38.051Z,99732.00
2018-10-05T10:05:42.515Z,99723.00
2018-10-05T10:07:47.091Z,99724.00
2018-10-05T10:09:51.563Z,99715.00
2018-10-05T10:11:56.112Z,99719.00
2018-10-05T10:14:00.667Z,99719.00
2018-10-05T10:16:05.160Z,99713.00
2018-10-05T10:18:09.646Z,99708.00
2018-10-05T10:20:14.634Z,99708.00
2018-10-05T10:22:19.066Z,99707.00
2018-10-05T10:24:23.618Z,99713.00
2018-10-05T10:26:28.863Z,99714.00
2018-10-05T10:28:33.476Z,99708.00
2018-10-05T10:30:37.938Z,99711.00
2018-10-05T10:32:42.536Z,99711.00
2018-10-05T10:34:47.021Z,99714.00
2018-10-05T10:36:51.511Z,99710.00
2018-10-05T10:38:56.088Z,99706.00
2018-10-05T10:41:00.572Z,99697.00
2018-10-05T10:43:05.095Z,99693.00
2018-10-05T10:45:10.064Z,99699.00
2018-10-05T10:47:14.635Z,99704.00
2018-10-05T10:49:19.771Z,99693.00
2018-10-05T10:51:24.298Z,99684.00
2018-10-05T10:53:28.815Z,99677.00
2018-10-05T10:55:33.273Z,99664.00
2018-10-05T10:57:37.814Z,99679.00
2018-10-05T10:59:42.318Z,99668.00
2018-10-05T11:01:46.778Z,99666.00
2018-10-05T11:03:51.395Z,99670.00
2018-10-05T11:05:55.846Z,99661.00
2018-10-05T11:08:00.350Z,99663.00
2018-10-05T11:10:04.926Z,99659.00
2018-10-05T11:12:09.404Z,99659.00
2018-10-05T11:14:13.986Z,99647.00
2018-10-05T11:16:18.543Z,99655.00
2018-10-05T11:18:23.060Z,99643.00
2018-10-05T11:20:28.392Z,99647.00
2018-10-05T11:22:32.982Z,99642.00
2018-10-05T11:24:37.439Z,99645.00
2018-10-05T11:26:41.959Z,99636.00
2018-10-05T11:28:46.539Z,99641.00
2018-10-05T11:30:51.028Z,99630.00
2018-10-05T11:32:55.500Z,99616.00
2018-10-05T11:35:00.051Z,99618.00
2018-10-05T11:37:04.982Z,99618.00
2018-10-05T11:39:09.515Z,99618.00
2018-10-05T11:41:13.979Z,99619.00
2018-10-05T11:43:18.534Z,99615.00
2018-10-05T11:45:22.989Z,99607.00
2018-10-05T11:47:27.477Z,99616.00
2018-10-05T11:49:31.930Z,99615.00
2018-10-05T11:51:36.552Z,99611.00
2018-10-05T11:53:41.143Z,99605.00
2018-10-05T11:55:45.871Z,99603.00
2018-10-05T11:57:50.371Z,99596.00
2018-10-05T11:59:54.890Z,99594.00
2018-10-05T12:01:59.422Z,99600.00
2018-10-05T12:04:05.105Z,99595.00
2018-10-05T12:06:09.539Z,99593.00
2018-10-05T12:08:14.078Z,99597.00
2018-10-05T12:10:18.615Z,99586.00
2018-10-05T12:12:23.034Z,99579.00
2018-10-05T12:14:27.903Z,99580.00
2018-10-05T12:16:32.359Z,99570.00
2018-10-05T12:18:37.218Z,99577.00
2018-10-05T12:20:41.634Z,99568.00
2018-10-05T12:22:46.114Z,99574.00
2018-10-05T12:24:51.530Z,99570.00
2018-10-05T12:26:56.347Z,99560.00
2018-10-05T12:29:01.210Z,99555.00
2018-10-05T12:31:05.732Z,99553.00
2018-10-05T12:33:10.220Z,99546.00
2018-10-05T12:35:14.924Z,99548.00
2018-10-05T12:37:20.483Z,99539.00
2018-10-05T12:39:27.135Z,99544.00
2018-10-05T12:41:32.077Z,99545.00
2018-10-05T12:43:36.934Z,99537.00
2018-10-05T12:45:41.528Z,99534.00
2018-10-05T12:47:46.033Z,99538.00
2018-10-05T12:49:50.999Z,99546.00
2018-10-05T12:51:55.838Z,99533.00
2018-10-05T12:54:01.894Z,99537.00
2018-10-05T12:56:07.004Z,99536.00
2018-10-05T12:58:11.528Z,99534.00
2018-10-05T13:00:16.075Z,99532.00
2018-10-05T13:02:20.592Z,99528.00
2018-10-05T13:04:25.120Z,99525.00
2018-10-05T13:06:29.728Z,99528.00
2018-10-05T13:08:34.230Z,99525.00
2018-10-05T13:10:39.114Z,99519.00
2018-10-05T13:12:44.193Z,99512.00
2018-10-05T13:14:48.842Z,99513.00
2018-10-05T13:16:54.147Z,99524.00
2018-10-05T13:18:58.779Z,99513.00
2018-10-05T13:21:03.295Z,99508.00
2018-10-05T13:23:08.419Z,99511.00
2018-10-05T13:25:13.688Z,99517.00
2018-10-05T13:27:18.595Z,99514.00
2018-10-05T13:29:23.125Z,99509.00
2018-10-05T13:31:28.069Z,99510.00
2018-10-05T13:33:33.928Z,99503.00
2018-10-05T13:35:38.459Z,99504.00
2018-10-05T13:37:43.078Z,99500.00
2018-10-05T13:39:48.194Z,99490.00
2018-10-05T13:41:53.686Z,99490.00
2018-10-05T13:43:58.116Z,99488.00
2018-10-05T13:46:03.535Z,99481.00
2018-10-05T13:48:08.489Z,99483.00
2018-10-05T13:50:14.174Z,99476.00
2018-10-05T13:52:19.416Z,99476.00
2018-10-05T13:54:23.919Z,99473.00
2018-10-05T13:56:28.637Z,99466.00
2018-10-05T13:58:33.836Z,99477.00
2018-10-05T14:00:38.358Z,99465.00
2018-10-05T14:02:42.876Z,99467.00
2018-10-05T14:04:47.368Z,99466.00
2018-10-05T14:06:52.631Z,99477.00
2018-10-05T14:08:57.083Z,99467.00
2018-10-05T14:11:01.658Z,99458.00
2018-10-05T14:13:05.954Z,99458.00
2018-10-05T14:15:10.586Z,99458.00
2018-10-05T14:17:15.027Z,99453.00
2018-10-05T14:19:19.564Z,99451.00
2018-10-05T14:21:24.106Z,99449.00
2018-10-05T14:23:28.827Z,99446.00
2018-10-05T14:25:33.998Z,99445.00
2018-10-05T14:27:38.479Z,99443.00
2018-10-05T14:29:43.039Z,99443.00
2018-10-05T14:31:51.364Z,99429.00
2018-10-05T14:33:56.027Z,99423.00
2018-10-05T14:36:00.561Z,99421.00
2018-10-05T14:38:05.143Z,99418.00
2018-10-05T14:40:09.778Z,99418.00
2018-10-05T14:42:14.384Z,99416.00
2018-10-05T14:44:18.931Z,99409.00
2018-10-05T14:46:23.477Z,99407.00
2018-10-05T14:48:28.007Z,99409.00
2018-10-05T14:50:33.388Z,99404.00
2018-10-05T14:52:37.900Z,99402.00
2018-10-05T14:54:43.139Z,99400.00
2018-10-05T14:56:47.630Z,99398.00
2018-10-05T14:58:52.135Z,99395.00
2018-10-05T15:00:57.902Z,99393.00
2018-10-05T15:05:16.922Z,99387.00
2018-10-05T15:07:22.234Z,99382.00
2018-10-05T15:09:27.343Z,99381.00
2018-10-05T15:11:31.854Z,99384.00
2018-10-05T15:13:36.828Z,99379.00
2018-10-05T15:15:41.374Z,99371.00
2018-10-05T15:17:46.015Z,99365.00
2018-10-05T15:19:50.730Z,99361.00
2018-10-05T15:21:55.271Z,99361.00
2018-10-05T15:23:59.995Z,99356.00
2018-10-05T15:26:04.473Z,99361.00
2018-10-05T15:28:08.907Z,99350.00
2018-10-05T15:30:13.379Z,99340.00
2018-10-05T15:32:18.535Z,99343.00
2018-10-05T15:34:23.034Z,99345.00
2018-10-05T15:36:28.023Z,99339.00
2018-10-05T15:38:32.966Z,99334.00
2018-10-05T15:40:38.552Z,99330.00
2018-10-05T15:42:43.269Z,99332.00
2018-10-05T15:44:48.986Z,99331.00
2018-10-05T15:47:01.154Z,99322.00
2018-10-05T15:49:05.862Z,99333.00
2018-10-05T15:51:10.402Z,99332.00
2018-10-05T15:53:14.792Z,99332.00
2018-10-05T15:55:22.103Z,99330.00
2018-10-05T15:57:38.581Z,99336.00
2018-10-05T15:59:43.400Z,99333.00
2018-10-05T16:01:48.605Z,99334.00
2018-10-05T16:03:53.194Z,99334.00
2018-10-05T16:05:58.421Z,99335.00
2018-10-05T16:08:03.017Z,99333.00
2018-10-05T16:10:08.607Z,99336.00
2018-10-05T16:12:13.926Z,99335.00
2018-10-05T16:14:18.621Z,99337.00
2018-10-05T16:16:23.312Z,99334.00
2018-10-05T16:18:27.865Z,99342.00
2018-10-05T16:20:32.214Z,99330.00
2018-10-05T16:22:36.658Z,99333.00
2018-10-05T16:24:42.608Z,99339.00
2018-10-05T16:26:47.110Z,99342.00
2018-10-05T16:28:51.935Z,99342.00
2018-10-05T16:30:56.527Z,99350.00
2018-10-05T16:33:01.034Z,99339.00
2018-10-05T16:35:07.170Z,99344.00
2018-10-05T16:37:12.300Z,99345.00
2018-10-05T16:39:16.940Z,99345.00
2018-10-05T16:41:21.526Z,99353.00
2018-10-05T16:43:26.872Z,99354.00
2018-10-05T16:45:31.465Z,99351.00
2018-10-05T16:47:35.923Z,99348.00
2018-10-05T16:49:40.439Z,99349.00
2018-10-05T16:51:44.986Z,99354.00
2018-10-05T16:53:49.497Z,99351.00
2018-10-05T16:55:53.994Z,99355.00
2018-10-05T16:57:58.454Z,99358.00
2018-10-05T17:00:02.961Z,99352.00
2018-10-05T17:02:07.470Z,99351.00
2018-10-05T17:04:12.010Z,99355.00
2018-10-05T17:06:16.522Z,99362.00
2018-10-05T17:08:21.068Z,99355.00
2018-10-05T17:10:26.851Z,99348.00
2018-10-05T17:12:31.323Z,99356.00
2018-10-05T17:14:35.933Z,99360.00
2018-10-05T17:16:40.713Z,99362.00
2018-10-05T17:18:45.628Z,99362.00
2018-10-05T17:20:50.149Z,99363.00
2018-10-05T17:22:55.098Z,99358.00
2018-10-05T17:24:59.594Z,99370.00
2018-10-05T17:27:05.010Z,99351.00
2018-10-05T17:29:10.348Z,99362.00
2018-10-05T17:31:15.267Z,99357.00
2018-10-05T17:33:19.868Z,99358.00
2018-10-05T17:35:24.712Z,99348.00
2018-10-05T17:37:29.911Z,99350.00
2018-10-05T17:39:35.140Z,99347.00
2018-10-05T17:41:40.149Z,99350.00
2018-10-05T17:43:44.713Z,99353.00
2018-10-05T17:45:50.017Z,99351.00
2018-10-05T17:47:54.487Z,99351.00
2018-10-05T17:49:59.011Z,99350.00
2018-10-05T17:52:03.636Z,99344.00
2018-10-05T17:54:08.073Z,99345.00
2018-10-05T17:56:12.781Z,99353.00
2018-10-05T17:58:17.244Z,99353.00
2018-10-05T18:00:21.715Z,99351.00
2018-10-05T18:02:28.834Z,99350.00
2018-10-05T18:04:33.240Z,99345.00
2018-10-05T18:06:37.787Z,99343.00
2018-10-05T18:08:42.650Z,99352.00
2018-10-05T18:10:47.211Z,99344.00
2018-10-05T18:12:52.381Z,99344.00
2018-10-05T18:14:57.419Z,99347.00
2018-10-05T18:17:02.386Z,99346.00
2018-10-05T18:19:06.967Z,99336.00
2018-10-05T18:21:11.684Z,99335.00
2018-10-05T18:23:16.364Z,99333.00
2018-10-05T18:25:21.397Z,99338.00
2018-10-05T18:27:26.436Z,99334.00
2018-10-05T18:29:31.437Z,99336.00
2018-10-05T18:31:37.078Z,99335.00
2018-10-05T18:33:42.122Z,99326.00
2018-10-05T18:35:46.822Z,99335.00
2018-10-05T18:37:51.664Z,99341.00
2018-10-05T18:39:56.982Z,99332.00
2018-10-05T18:42:01.589Z,99321.00
2018-10-05T18:44:07.063Z,99329.00
2018-10-05T18:46:11.942Z,99328.00
2018-10-05T18:48:16.598Z,99330.00
2018-10-05T18:50:21.008Z,99323.00
2018-10-05T18:52:25.517Z,99325.00
2018-10-05T18:54:30.015Z,99324.00
2018-10-05T18:56:51.975Z,99321.00
2018-10-05T18:58:56.497Z,99316.00
2018-10-05T19:01:00.945Z,99317.00
2018-10-05T19:03:05.502Z,99315.00
2018-10-05T19:05:10.884Z,99314.00
2018-10-05T19:07:15.432Z,99307.00
2018-10-05T19:09:19.960Z,99314.00
2018-10-05T19:11:24.475Z,99319.00
2018-10-05T19:13:29.036Z,99313.00
2018-10-05T19:15:34.014Z,99312.00
2018-10-05T19:17:38.490Z,99316.00
2018-10-05T19:19:42.978Z,99316.00
2018-10-05T19:21:47.483Z,99312.00
2018-10-05T19:23:51.991Z,99319.00
2018-10-05T19:25:56.774Z,99313.00
2018-10-05T19:28:01.249Z,99306.00
2018-10-05T19:30:05.999Z,99304.00
2018-10-05T19:32:11.279Z,99306.00
2018-10-05T19:34:17.430Z,99299.00
2018-10-05T19:36:21.960Z,99304.00
2018-10-05T19:38:26.577Z,99296.00
2018-10-05T19:40:31.495Z,99300.00
2018-10-05T19:42:36.121Z,99297.00
2018-10-05T19:44:40.667Z,99293.00
2018-10-05T19:46:45.323Z,99296.00
2018-10-05T19:48:49.823Z,99297.00
2018-10-05T19:50:54.288Z,99296.00
2018-10-05T19:52:59.232Z,99289.00
2018-10-05T19:55:03.688Z,99290.00
2018-10-05T19:57:08.202Z,99294.00
2018-10-05T19:59:12.709Z,99293.00
2018-10-05T20:01:17.976Z,99300.00
2018-10-05T20:03:22.500Z,99294.00
2018-10-05T20:05:27.037Z,99293.00
2018-10-05T20:07:31.783Z,99292.00
2018-10-05T20:09:36.331Z,99282.00
2018-10-05T20:11:40.856Z,99281.00
2018-10-05T20:13:46.504Z,99286.00
2018-10-05T20:15:52.983Z,99289.00
2018-10-05T20:17:57.784Z,99281.00
2018-10-05T20:20:02.447Z,99279.00
2018-10-05T20:22:09.126Z,99276.00
2018-10-05T20:24:13.793Z,99277.00
2018-10-05T20:26:18.374Z,99283.00
2018-10-05T20:28:23.147Z,99280.00
2018-10-05T20:30:28.120Z,99273.00
2018-10-05T20:32:32.646Z,99269.00
2018-10-05T20:34:40.248Z,99272.00
2018-10-05T20:36:46.509Z,99275.00
2018-10-05T20:38:52.051Z,99266.00
2018-10-05T20:40:56.862Z,99264.00
2018-10-05T20:43:01.460Z,99276.00
2018-10-05T20:45:12.653Z,99269.00
2018-10-05T20:47:17.903Z,99272.00
2018-10-05T20:49:22.434Z,99279.00
2018-10-05T20:51:27.093Z,99272.00
2018-10-05T20:53:32.633Z,99265.00
2018-10-05T20:55:37.163Z,99265.00
2018-10-05T20:57:42.547Z,99262.00
2018-10-05T20:59:47.111Z,99276.00
2018-10-05T21:01:52.666Z,99263.00
2018-10-05T21:03:57.906Z,99261.00
2018-10-05T21:06:02.412Z,99260.00
2018-10-05T21:08:06.910Z,99259.00
2018-10-05T21:10:12.974Z,99264.00
2018-10-05T21:12:17.440Z,99270.00
2018-10-05T21:14:21.980Z,99265.00
2018-10-05T21:16:26.460Z,99253.00
2018-10-05T21:18:31.067Z,99260.00
2018-10-05T21:20:35.609Z,99250.00
2018-10-05T21:22:40.102Z,99254.00
2018-10-05T21:24:44.515Z,99257.00
2018-10-05T21:26:49.043Z,99257.00
2018-10-05T21:28:53.565Z,99252.00
2018-10-05T21:30:58.067Z,99248.00
2018-10-05T21:33:02.626Z,99254.00
2018-10-05T21:35:07.237Z,99253.00
2018-10-05T21:37:12.558Z,99250.00
2018-10-05T21:39:17.090Z,99255.00
2018-10-05T21:41:21.571Z,99250.00
2018-10-05T21:43:25.990Z,99251.00
2018-10-05T21:45:30.477Z,99258.00
2018-10-05T21:47:34.906Z,99259.00
2018-10-05T21:49:39.492Z,99256.00
2018-10-05T21:51:43.939Z,99253.00
2018-10-05T21:53:48.511Z,99245.00
2018-10-05T21:55:53.795Z,99241.00
2018-10-05T21:57:58.291Z,99243.00
2018-10-05T22:00:03.311Z,99242.00
2018-10-05T22:02:08.047Z,99243.00
2018-10-05T22:04:13.846Z,99242.00
2018-10-05T22:06:19.428Z,99246.00
2018-10-05T22:08:23.901Z,99250.00
2018-10-05T22:10:28.359Z,99246.00
2018-10-05T22:12:33.644Z,99243.00
2018-10-05T22:14:38.947Z,99248.00
2018-10-05T22:16:43.398Z,99245.00
2018-10-05T22:18:47.888Z,99242.00
2018-10-05T22:20:52.412Z,99242.00
2018-10-05T22:22:57.010Z,99246.00
2018-10-05T22:25:01.475Z,99244.00
2018-10-05T22:27:05.983Z,99242.00
2018-10-05T22:29:10.466Z,99231.00
2018-10-05T22:31:15.004Z,99243.00
2018-10-05T22:33:19.527Z,99241.00
2018-10-05T22:35:24.511Z,99231.00
2018-10-05T22:37:29.088Z,99236.00
2018-10-05T22:39:35.494Z,99237.00
2018-10-05T22:41:42.227Z,99240.00
2018-10-05T22:43:48.354Z,99229.00
2018-10-05T22:45:55.564Z,99232.00
2018-10-05T22:48:00.072Z,99224.00
2018-10-05T22:50:13.240Z,99227.00
2018-10-05T22:52:18.879Z,99221.00
2018-10-05T22:54:23.379Z,99226.00
2018-10-05T22:56:27.915Z,99224.00
2018-10-05T22:58:32.427Z,99227.00
2018-10-05T23:00:36.996Z,99219.00
2018-10-05T23:02:41.467Z,99221.00
2018-10-05T23:04:45.938Z,99223.00
2018-10-05T23:06:50.448Z,99221.00
2018-10-05T23:08:55.584Z,99218.00
2018-10-05T23:11:04.087Z,99216.00
2018-10-05T23:13:12.086Z,99215.00
2018-10-05T23:15:16.503Z,99220.00
2018-10-05T23:17:21.103Z,99215.00
2018-10-05T23:19:26.103Z,99221.00
2018-10-05T23:21:30.673Z,99218.00
2018-10-05T23:23:35.819Z,99215.00
2018-10-05T23:25:40.308Z,99210.00
2018-10-05T23:27:44.795Z,99214.00
2018-10-05T23:29:49.304Z,99214.00
2018-10-05T23:31:53.858Z,99207.00
2018-10-05T23:33:58.363Z,99211.00
2018-10-05T23:36:02.888Z,99217.00
2018-10-05T23:38:08.230Z,99207.00
2018-10-05T23:40:12.691Z,99208.00
2018-10-05T23:42:17.279Z,99210.00
2018-10-05T23:44:21.780Z,99212.00
2018-10-05T23:46:26.423Z,99200.00
2018-10-05T23:48:31.090Z,99200.00
2018-10-05T23:50:35.730Z,99205.00
2018-10-05T23:52:44.123Z,99206.00
2018-10-05T23:54:48.593Z,99210.00
2018-10-05T23:56:53.061Z,99210.00
2018-10-05T23:58:57.547Z,99201.00
